Terminal Aerodrome Forecast
Issued by NWS Louisville, KY

Home | Current Version | Previous Version | Text Only | Print | Product List | Glossary On
Versions: 1 2 3 4 5 6 7 8 9 10 11 12 13 14 15 16 17 18 19
606
FTUS43 KLMK 050529
TAFBWG
TAF
KBWG 050529Z 0506/0606 29005KT P6SM OVC012
     FM050800 VRB03KT 3SM BR OVC007
      TEMPO 0508/0512 1SM BR BKN004
     FM051400 06005KT 6SM BR OVC012
     FM051700 09006KT P6SM BKN200
     FM060300 09004KT P6SM OVC015=

USA.gov is the U.S. government's official web portal to all federal, state and local government web resources and services.